Time;durP1;ratioP1;P1;durP2;ratioP2;P2;SDS_P1;SDS_P2;PMS_P1;PMS_P2;Temp;Humidity;BMP_temperature;BMP_pressure;BME280_temperature;BME280_humidity;BME280_pressure;Samples;Min_cycle;Max_cycle;Signal;HPM_P1;HPM_P2
2024/01/11 00:00:56;;;;;;;413.50;172.30;;;;;;;-10.03;79.74;101664.21;107753;1258;24048;-75
2024/01/11 00:03:47;;;;;;;428.60;175.00;;;;;;;-10.01;80.15;101658.55;107856;1266;24209;-75
2024/01/11 00:06:44;;;;;;;459.80;189.60;;;;;;;-9.99;79.99;101655.86;107795;1273;21965;-75
2024/01/11 00:09:39;;;;;;;439.90;188.90;;;;;;;-10.01;79.41;101652.29;107734;1273;24383;-75
2024/01/11 00:12:31;;;;;;;421.50;183.00;;;;;;;-10.04;79.39;101642.65;107761;1273;25222;-76
2024/01/11 00:15:22;;;;;;;442.20;187.40;;;;;;;-10.04;79.41;101637.30;107786;1273;23279;-75
2024/01/11 00:18:13;;;;;;;422.90;186.80;;;;;;;-10.04;79.66;101634.27;107757;1273;22537;-75
2024/01/11 00:21:05;;;;;;;439.20;189.10;;;;;;;-10.06;79.80;101627.83;107883;1273;25371;-76
2024/01/11 00:23:56;;;;;;;440.70;186.00;;;;;;;-10.06;80.04;101624.23;107716;1273;24340;-76
2024/01/11 00:26:47;;;;;;;450.50;193.50;;;;;;;-10.05;80.15;101626.63;107694;1273;25493;-76
2024/01/11 00:29:38;;;;;;;456.20;194.70;;;;;;;-10.05;80.20;101619.83;107824;1273;22596;-76
2024/01/11 00:32:29;;;;;;;448.60;192.00;;;;;;;-10.05;80.42;101619.75;107668;1254;25442;-76
2024/01/11 00:35:20;;;;;;;442.80;190.80;;;;;;;-10.05;80.35;101607.39;107762;1273;22513;-75
2024/01/11 00:38:11;;;;;;;452.80;189.90;;;;;;;-10.06;80.58;101598.56;107681;1273;23101;-75
2024/01/11 00:41:02;;;;;;;443.20;190.70;;;;;;;-10.06;80.75;101597.80;107765;1273;24335;-76
2024/01/11 00:43:53;;;;;;;438.80;186.10;;;;;;;-10.06;80.79;101592.95;107824;1273;24322;-76
2024/01/11 00:46:44;;;;;;;455.60;194.30;;;;;;;-10.04;80.74;101589.77;107900;1273;25231;-76
2024/01/11 00:49:34;;;;;;;427.00;178.90;;;;;;;-10.03;80.73;101593.55;107826;1273;25238;-78
2024/01/11 00:52:25;;;;;;;432.50;176.40;;;;;;;-10.02;80.82;101591.13;108001;1273;24252;-76
2024/01/11 00:55:16;;;;;;;433.30;177.00;;;;;;;-10.02;80.72;101600.39;107823;1273;22549;-75
2024/01/11 00:58:07;;;;;;;436.80;176.00;;;;;;;-10.01;80.86;101598.11;107778;1273;25517;-76
2024/01/11 01:00:58;;;;;;;430.30;176.00;;;;;;;-10.01;80.92;101597.67;107691;1273;22513;-76
2024/01/11 01:03:49;;;;;;;426.20;173.60;;;;;;;-9.98;80.97;101602.20;107844;1273;22797;-75
2024/01/11 01:06:39;;;;;;;422.80;169.20;;;;;;;-9.98;80.53;101594.84;107741;1261;21852;-75
2024/01/11 01:09:31;;;;;;;408.50;169.10;;;;;;;-10.01;80.19;101586.33;107690;1273;25398;-76
2024/01/11 01:12:22;;;;;;;412.10;169.80;;;;;;;-10.02;80.39;101581.49;107765;1273;24020;-75
2024/01/11 01:15:14;;;;;;;412.20;168.10;;;;;;;-10.03;80.13;101578.49;107786;1273;25423;-75
2024/01/11 01:18:06;;;;;;;418.30;168.10;;;;;;;-10.06;79.99;101584.30;107673;1273;24332;-75
2024/01/11 01:20:57;;;;;;;404.70;167.50;;;;;;;-10.07;80.17;101588.98;107704;1273;22690;-76
2024/01/11 01:23:48;;;;;;;411.00;166.60;;;;;;;-10.07;80.05;101579.56;107746;1273;24726;-75
2024/01/11 01:26:39;;;;;;;410.00;164.00;;;;;;;-10.06;79.98;101575.17;107773;1273;22538;-76
2024/01/11 01:29:30;;;;;;;400.70;162.60;;;;;;;-10.07;79.89;101577.05;107830;1273;25246;-76
2024/01/11 01:32:21;;;;;;;391.20;164.00;;;;;;;-10.08;80.11;101576.47;107890;1273;25365;-75
2024/01/11 01:35:12;;;;;;;417.30;173.00;;;;;;;-10.06;80.30;101581.11;107782;1273;21925;-76
2024/01/11 01:38:03;;;;;;;414.00;162.10;;;;;;;-10.05;80.18;101572.21;107680;1273;22566;-75
2024/01/11 01:40:54;;;;;;;422.10;166.20;;;;;;;-10.06;80.18;101564.61;107700;1273;22508;-75
2024/01/11 01:43:43;;;;;;;;;;;;;;;-10.08;80.24;101554.00;107775;1273;22571;-75
2024/01/11 01:46:34;;;;;;;394.50;157.00;;;;;;;-10.10;80.48;101556.94;107815;1273;23094;-76
2024/01/11 01:49:25;;;;;;;404.20;164.10;;;;;;;-10.10;80.86;101559.73;107841;1273;23875;-75
2024/01/11 01:52:17;;;;;;;403.10;163.60;;;;;;;-10.09;80.72;101558.89;107743;1273;24319;-76
2024/01/11 01:55:10;;;;;;;389.10;162.60;;;;;;;-10.09;80.65;101571.48;107808;1273;24192;-75
2024/01/11 01:58:04;;;;;;;394.10;157.10;;;;;;;-10.11;80.62;101575.73;107853;1272;22966;-75
2024/01/11 02:00:55;;;;;;;375.90;156.40;;;;;;;-10.09;80.92;101593.83;107872;1273;22517;-77
2024/01/11 02:03:50;;;;;;;407.70;161.70;;;;;;;-10.10;80.94;101597.60;107764;1273;22557;-75
2024/01/11 02:06:45;;;;;;;381.10;153.50;;;;;;;-10.12;80.78;101595.66;107910;1272;22520;-77
2024/01/11 02:09:37;;;;;;;399.60;162.60;;;;;;;-10.13;80.68;101602.48;107724;1273;22982;-75
2024/01/11 02:12:30;;;;;;;399.70;155.40;;;;;;;-10.11;80.76;101592.39;107787;1273;21771;-75
2024/01/11 02:15:21;;;;;;;403.10;156.90;;;;;;;-10.09;80.70;101587.30;107769;1273;25229;-75
2024/01/11 02:18:12;;;;;;;396.80;157.30;;;;;;;-10.08;80.61;101578.72;107813;1273;22602;-75
2024/01/11 02:21:07;;;;;;;396.00;154.70;;;;;;;-10.08;80.45;101578.63;107837;1273;22608;-75
2024/01/11 02:24:07;;;;;;;388.40;157.10;;;;;;;-10.06;80.76;101578.48;107883;1273;24171;-75
2024/01/11 02:27:02;;;;;;;385.70;156.30;;;;;;;-10.07;80.45;101586.07;107711;1264;23055;-74
2024/01/11 02:29:53;;;;;;;387.10;158.20;;;;;;;-10.12;80.14;101577.67;107849;1273;22635;-75
2024/01/11 02:32:47;;;;;;;394.00;155.20;;;;;;;-10.15;80.34;101568.79;107731;1273;21856;-76
2024/01/11 02:35:39;;;;;;;384.10;154.10;;;;;;;-10.15;80.18;101570.58;108058;1273;25224;-75
2024/01/11 02:38:30;;;;;;;390.40;150.80;;;;;;;-10.17;80.12;101563.70;107886;1273;22827;-74
2024/01/11 02:41:21;;;;;;;384.20;155.60;;;;;;;-10.19;80.17;101556.95;108183;1273;24909;-75
2024/01/11 02:44:12;;;;;;;388.50;153.40;;;;;;;-10.18;80.35;101543.80;107984;1273;25400;-75
2024/01/11 02:47:03;;;;;;;394.50;155.00;;;;;;;-10.18;80.15;101534.15;107987;1273;22554;-74
2024/01/11 02:49:54;;;;;;;378.80;153.80;;;;;;;-10.19;80.32;101524.12;108002;1273;25351;-75
2024/01/11 02:52:45;;;;;;;386.50;154.20;;;;;;;-10.15;80.64;101514.95;107938;1273;22632;-75
2024/01/11 02:55:35;;;;;;;377.20;151.80;;;;;;;-10.13;80.88;101505.22;107939;1273;22507;-75
2024/01/11 02:58:26;;;;;;;378.70;149.40;;;;;;;-10.12;81.12;101501.36;107950;1273;22558;-75
2024/01/11 03:01:17;;;;;;;383.90;146.60;;;;;;;-10.10;81.10;101502.77;108063;1273;22649;-75
2024/01/11 03:04:08;;;;;;;377.00;150.20;;;;;;;-10.08;81.22;101499.77;107829;1273;22726;-75
2024/01/11 03:06:59;;;;;;;368.50;147.70;;;;;;;-10.07;81.15;101509.52;108060;1273;22506;-75
2024/01/11 03:09:50;;;;;;;367.10;141.20;;;;;;;-10.07;81.23;101508.60;108005;1271;25154;-75
2024/01/11 03:12:42;;;;;;;364.60;139.90;;;;;;;-10.06;81.16;101504.13;107997;1273;22673;-75
2024/01/11 03:15:33;;;;;;;361.00;140.80;;;;;;;-10.05;81.20;101488.27;108288;1272;23710;-75
2024/01/11 03:18:24;;;;;;;360.40;140.60;;;;;;;-10.03;81.31;101492.39;107957;1272;22548;-75
2024/01/11 03:21:15;;;;;;;347.10;130.80;;;;;;;-10.00;81.45;101493.51;107960;1272;22557;-75
2024/01/11 03:24:06;;;;;;;339.40;131.50;;;;;;;-9.99;81.44;101494.38;107912;1272;25238;-75
2024/01/11 03:26:56;;;;;;;346.00;132.40;;;;;;;-9.98;81.42;101506.58;107965;1272;22922;-76
2024/01/11 03:29:49;;;;;;;334.20;126.80;;;;;;;-9.98;81.54;101515.16;108037;1272;25300;-76
2024/01/11 03:32:40;;;;;;;326.60;129.40;;;;;;;-9.99;81.38;101512.27;107821;1272;25363;-75
2024/01/11 03:35:31;;;;;;;344.70;129.10;;;;;;;-9.97;81.45;101517.02;108026;1272;22511;-75
2024/01/11 03:38:21;;;;;;;334.00;127.70;;;;;;;-9.99;81.35;101522.36;108110;1272;22997;-75
2024/01/11 03:41:12;;;;;;;324.80;124.60;;;;;;;-10.00;81.17;101510.25;108090;1272;22528;-75
2024/01/11 03:44:03;;;;;;;328.10;124.00;;;;;;;-10.00;81.16;101511.53;108098;1272;23885;-75
2024/01/11 03:46:54;;;;;;;338.50;126.60;;;;;;;-10.01;81.06;101513.61;108057;1272;22626;-74
2024/01/11 03:49:44;;;;;;;343.60;125.40;;;;;;;-10.01;81.15;101509.93;108048;1272;25283;-75
2024/01/11 03:52:36;;;;;;;327.30;126.60;;;;;;;-9.99;81.11;101523.34;108189;1272;25036;-76
2024/01/11 03:55:27;;;;;;;298.70;121.50;;;;;;;-9.99;80.83;101524.10;107985;1272;22521;-75
2024/01/11 03:58:17;;;;;;;313.50;120.50;;;;;;;-9.98;81.01;101527.48;108117;1272;21882;-75
2024/01/11 04:01:10;;;;;;;328.10;123.40;;;;;;;-10.01;80.77;101529.58;107991;1261;25289;-75
2024/01/11 04:04:01;;;;;;;316.10;122.00;;;;;;;-10.00;81.03;101536.38;108041;1272;24192;-75
2024/01/11 04:06:52;;;;;;;332.10;127.20;;;;;;;-10.02;80.84;101522.08;107960;1273;22504;-74
2024/01/11 04:09:44;;;;;;;318.90;121.70;;;;;;;-10.04;80.95;101512.94;107995;1273;22501;-75
2024/01/11 04:12:34;;;;;;;323.10;118.80;;;;;;;-10.03;80.89;101513.98;108285;1272;22768;-75
2024/01/11 04:15:25;;;;;;;327.10;124.90;;;;;;;-10.01;81.24;101511.71;108141;1272;22504;-75
2024/01/11 04:18:16;;;;;;;313.10;119.90;;;;;;;-9.99;81.02;101501.98;108123;1272;22871;-75
2024/01/11 04:21:07;;;;;;;314.50;119.60;;;;;;;-9.98;81.00;101496.73;107996;1272;24375;-75
2024/01/11 04:23:59;;;;;;;317.00;117.10;;;;;;;-10.00;80.60;101496.91;108316;1272;21752;-75
2024/01/11 04:26:49;;;;;;;322.90;121.90;;;;;;;-10.00;80.95;101503.05;107991;1272;22953;-75
2024/01/11 04:29:40;;;;;;;321.90;117.60;;;;;;;-10.00;80.73;101500.47;108140;1272;24317;-76
2024/01/11 04:32:31;;;;;;;312.80;118.10;;;;;;;-10.03;80.73;101492.55;108109;1272;22523;-75
2024/01/11 04:35:22;;;;;;;307.70;116.80;;;;;;;-10.03;80.67;101491.05;108111;1272;22666;-75
2024/01/11 04:38:12;;;;;;;315.80;118.20;;;;;;;-10.04;80.68;101500.59;108064;1272;25468;-76
2024/01/11 04:41:04;;;;;;;329.50;119.00;;;;;;;-10.06;80.71;101508.09;108032;1272;22582;-75
2024/01/11 04:43:55;;;;;;;319.00;116.70;;;;;;;-10.08;80.87;101493.00;108074;1272;24357;-75
2024/01/11 04:46:46;;;;;;;322.90;117.50;;;;;;;-10.07;80.93;101476.04;108160;1262;22523;-75
2024/01/11 04:49:37;;;;;;;328.90;121.10;;;;;;;-10.06;81.24;101476.74;107925;1272;23206;-75
2024/01/11 04:52:27;;;;;;;319.10;119.10;;;;;;;-10.05;81.35;101482.30;107740;1272;24372;-77
2024/01/11 04:55:18;;;;;;;310.60;117.40;;;;;;;-10.04;81.62;101485.55;107752;1269;22948;-76
2024/01/11 04:58:09;;;;;;;325.20;120.80;;;;;;;-10.03;81.61;101483.48;107744;1272;22650;-76
2024/01/11 05:01:01;;;;;;;304.30;114.50;;;;;;;-10.02;81.60;101469.41;107762;1272;22542;-77
2024/01/11 05:03:52;;;;;;;294.00;117.00;;;;;;;-9.99;81.79;101456.08;107565;1273;22924;-76
2024/01/11 05:06:43;;;;;;;298.90;114.20;;;;;;;-9.98;81.87;101442.71;107615;1271;22817;-75
2024/01/11 05:09:34;;;;;;;315.70;114.10;;;;;;;-9.95;82.16;101426.69;107671;1273;22582;-78
2024/01/11 05:12:25;;;;;;;290.30;114.90;;;;;;;-9.90;82.43;101422.68;107635;1273;22656;-76
2024/01/11 05:15:17;;;;;;;308.90;110.60;;;;;;;-9.86;82.63;101413.86;107660;1273;21874;-76
2024/01/11 05:18:08;;;;;;;279.10;105.40;;;;;;;-9.80;83.01;101414.53;107679;1273;21879;-76
2024/01/11 05:20:59;;;;;;;265.30;107.80;;;;;;;-9.74;83.26;101414.36;107749;1273;22544;-76
2024/01/11 05:23:50;;;;;;;268.00;102.10;;;;;;;-9.68;83.16;101435.48;107681;1273;24308;-76
2024/01/11 05:26:41;;;;;;;247.70;96.60;;;;;;;-9.62;83.30;101441.24;107675;1265;24278;-76
2024/01/11 05:29:32;;;;;;;261.60;99.00;;;;;;;-9.56;83.10;101431.83;107811;1273;22744;-77
2024/01/11 05:32:23;;;;;;;244.70;94.70;;;;;;;-9.51;82.89;101421.94;107644;1272;22801;-75
2024/01/11 05:35:14;;;;;;;249.70;94.60;;;;;;;-9.45;82.87;101408.89;107717;1272;22511;-76
2024/01/11 05:38:05;;;;;;;254.50;94.60;;;;;;;-9.42;83.01;101396.84;107767;1263;22514;-76
2024/01/11 05:40:56;;;;;;;238.30;94.10;;;;;;;-9.37;83.25;101387.94;107858;1272;22494;-76
2024/01/11 05:43:47;;;;;;;249.10;91.20;;;;;;;-9.31;83.46;101382.13;107738;1272;22557;-76
2024/01/11 05:46:39;;;;;;;236.60;91.30;;;;;;;-9.24;83.75;101368.05;107641;1272;163159;-76
2024/01/11 05:49:30;;;;;;;231.10;85.00;;;;;;;-9.14;84.17;101384.65;107668;1272;22928;-76
2024/01/11 05:52:21;;;;;;;226.30;85.60;;;;;;;-9.03;84.36;101405.20;107631;1272;24233;-76
2024/01/11 05:55:13;;;;;;;213.80;81.40;;;;;;;-8.90;84.61;101411.65;107503;1272;23738;-76
2024/01/11 05:58:04;;;;;;;220.30;83.00;;;;;;;-8.77;84.92;101413.03;107633;1272;23869;-76
2024/01/11 06:00:56;;;;;;;282.70;100.00;;;;;;;-8.65;85.06;101412.30;107638;1273;24353;-76
2024/01/11 06:03:47;;;;;;;226.70;88.60;;;;;;;-8.54;85.31;101408.30;107873;1273;22963;-77
2024/01/11 06:06:38;;;;;;;239.40;88.80;;;;;;;-8.44;85.11;101395.94;107704;1272;25512;-76
2024/01/11 06:09:29;;;;;;;208.60;81.10;;;;;;;-8.35;85.05;101389.20;107945;1272;25306;-76
2024/01/11 06:12:20;;;;;;;211.50;77.70;;;;;;;-8.24;85.09;101385.61;107665;1272;24214;-76
2024/01/11 06:15:12;;;;;;;203.00;76.70;;;;;;;-8.10;85.26;101375.31;107724;1272;22479;-76
2024/01/11 06:18:02;;;;;;;176.00;68.40;;;;;;;-7.97;85.18;101363.48;107716;1272;21772;-76
2024/01/11 06:20:53;;;;;;;166.60;63.50;;;;;;;-7.83;85.13;101354.55;107658;1272;22530;-76
2024/01/11 06:23:45;;;;;;;167.60;62.00;;;;;;;-7.69;84.90;101340.67;107712;1272;22567;-76
2024/01/11 06:26:36;;;;;;;167.60;59.30;;;;;;;-7.57;84.84;101329.83;107617;1272;24989;-76
2024/01/11 06:29:27;;;;;;;141.00;52.50;;;;;;;-7.47;84.43;101335.63;107877;1272;24356;-76
2024/01/11 06:32:18;;;;;;;137.20;55.30;;;;;;;-7.39;84.13;101357.30;107712;1272;22791;-77
2024/01/11 06:35:10;;;;;;;133.30;48.00;;;;;;;-7.34;83.59;101364.09;107625;1272;25403;-76
2024/01/11 06:38:01;;;;;;;119.20;47.20;;;;;;;-7.23;83.53;101369.84;107770;1272;22502;-76
2024/01/11 06:40:52;;;;;;;119.50;45.40;;;;;;;-7.15;83.39;101372.77;107749;1272;24384;-76
2024/01/11 06:43:43;;;;;;;122.70;46.60;;;;;;;-7.06;82.73;101380.77;107672;1272;24265;-76
2024/01/11 06:46:35;;;;;;;121.90;44.20;;;;;;;-6.98;82.61;101379.34;107831;1272;22570;-73
2024/01/11 06:49:26;;;;;;;137.20;46.40;;;;;;;-6.92;82.66;101380.88;107827;1267;22615;-75
2024/01/11 06:52:19;;;;;;;116.10;42.90;;;;;;;-6.89;82.65;101375.95;107735;1271;24332;-74
2024/01/11 06:55:11;;;;;;;133.40;47.00;;;;;;;-6.85;82.54;101374.55;107850;1265;25431;-73
2024/01/11 06:58:02;;;;;;;128.50;47.10;;;;;;;-6.83;82.61;101361.90;107797;1273;22550;-73
2024/01/11 07:00:53;;;;;;;124.70;45.90;;;;;;;-6.80;82.48;101360.29;107879;1273;22572;-74
2024/01/11 07:03:45;;;;;;;125.10;46.20;;;;;;;-6.76;82.44;101360.05;107697;1273;22588;-75
2024/01/11 07:06:37;;;;;;;115.90;43.60;;;;;;;-6.72;82.30;101357.33;107813;1273;22624;-73
2024/01/11 07:09:28;;;;;;;128.20;47.50;;;;;;;-6.69;82.16;101333.90;107785;1270;24237;-73
2024/01/11 07:12:19;;;;;;;119.00;42.80;;;;;;;-6.64;82.37;101343.48;108022;1270;25399;-73
2024/01/11 07:15:11;;;;;;;112.50;41.20;;;;;;;-6.58;82.37;101336.66;107947;1264;24184;-73
2024/01/11 07:18:03;;;;;;;105.70;38.10;;;;;;;-6.54;82.35;101332.16;110808;1272;23213;-76
2024/01/11 07:20:54;;;;;;;115.20;42.60;;;;;;;-6.48;82.06;101329.95;110801;1260;22422;-71
2024/01/11 07:23:45;;;;;;;99.80;37.60;;;;;;;-6.42;82.03;101323.33;110895;1267;22330;-72
2024/01/11 07:26:34;;;;;;;;;;;;;;;-6.33;81.74;101314.13;110983;1267;22347;-73
2024/01/11 07:29:24;;;;;;;81.00;29.00;;;;;;;-6.25;81.77;101308.59;110899;1271;22275;-72
2024/01/11 07:32:13;;;;;;;;;;;;;;;-6.19;81.58;101293.25;110829;1272;22439;-72
2024/01/11 07:35:06;;;;;;;92.30;31.30;;;;;;;-6.12;81.62;101286.92;110856;1264;22161;-73
2024/01/11 07:37:57;;;;;;;101.70;37.30;;;;;;;-6.06;81.66;101277.02;110919;1271;22402;-71
2024/01/11 07:40:48;;;;;;;104.30;35.50;;;;;;;-6.00;81.66;101262.83;110796;1270;22282;-72
2024/01/11 07:43:39;;;;;;;91.60;31.40;;;;;;;-5.95;81.43;101269.45;110757;1270;22101;-72
2024/01/11 07:46:29;;;;;;;91.30;30.80;;;;;;;-5.87;81.30;101284.73;110842;1267;22578;-72
2024/01/11 07:49:20;;;;;;;96.40;34.70;;;;;;;-5.82;81.17;101287.83;111019;1267;23352;-71
2024/01/11 07:52:11;;;;;;;80.00;28.30;;;;;;;-5.77;81.06;101287.42;110969;1267;22451;-72
2024/01/11 07:55:06;;;;;;;75.70;29.30;;;;;;;-5.72;80.84;101287.08;110805;1267;22903;-72
2024/01/11 07:57:56;;;;;;;83.00;28.90;;;;;;;-5.68;80.69;101292.74;110732;1273;23086;-72
2024/01/11 08:00:47;;;;;;;86.80;30.40;;;;;;;-5.59;80.60;101293.44;110713;1263;22441;-71
2024/01/11 08:03:38;;;;;;;73.50;30.20;;;;;;;-5.50;80.33;101285.79;110732;1273;22204;-72
2024/01/11 08:06:29;;;;;;;85.80;28.60;;;;;;;-5.40;80.34;101279.77;110810;1272;22122;-71
2024/01/11 08:09:18;;;;;;;;;;;;;;;-5.31;80.35;101279.86;111050;1268;22514;-72
2024/01/11 08:12:09;;;;;;;73.10;26.50;;;;;;;-5.21;80.32;101285.98;110836;1269;22778;-72
2024/01/11 08:15:00;;;;;;;77.20;27.20;;;;;;;-5.11;79.80;101287.27;110788;1272;22166;-71
2024/01/11 08:17:51;;;;;;;78.50;28.50;;;;;;;-5.01;79.82;101276.80;110801;1267;23213;-71
2024/01/11 08:20:42;;;;;;;67.30;24.20;;;;;;;-4.93;80.09;101263.86;110947;1271;22124;-72
2024/01/11 08:23:32;;;;;;;67.80;24.60;;;;;;;-4.84;80.17;101275.67;110984;1267;22244;-72
2024/01/11 08:26:22;;;;;;;;;;;;;;;-4.74;80.09;101288.46;110906;1271;22317;-72
2024/01/11 08:29:13;;;;;;;64.50;22.40;;;;;;;-4.65;79.80;101291.97;110873;1247;22697;-71
2024/01/11 08:32:05;;;;;;;59.40;21.30;;;;;;;-4.54;79.65;101291.48;110994;1270;22267;-72
2024/01/11 08:34:57;;;;;;;60.80;21.40;;;;;;;-4.45;79.61;101283.20;110959;1264;22227;-72
2024/01/11 08:37:49;;;;;;;64.30;20.90;;;;;;;-4.36;79.20;101274.55;110772;1272;22355;-72
2024/01/11 08:40:40;;;;;;;63.00;22.30;;;;;;;-4.26;78.91;101277.02;110737;1271;22143;-72
2024/01/11 08:43:30;;;;;;;61.90;20.40;;;;;;;-4.20;79.04;101283.41;110806;1272;22419;-73
2024/01/11 08:46:27;;;;;;;54.20;20.80;;;;;;;-4.15;79.18;101280.63;110796;1272;22367;-72
2024/01/11 08:49:19;;;;;;;52.30;21.10;;;;;;;-4.08;78.18;101285.70;110810;1265;22492;-72
2024/01/11 08:52:10;;;;;;;52.10;19.10;;;;;;;-4.01;78.56;101283.61;110981;1265;22457;-73
2024/01/11 08:55:02;;;;;;;51.80;19.90;;;;;;;-3.96;77.71;101284.34;110818;1272;22164;-72
2024/01/11 08:57:53;;;;;;;54.10;18.30;;;;;;;-3.89;77.88;101286.84;110737;1273;22232;-72
2024/01/11 09:00:43;;;;;;;49.10;17.10;;;;;;;-3.82;77.59;101296.21;110797;1272;22290;-72
2024/01/11 09:03:34;;;;;;;55.00;19.60;;;;;;;-3.74;77.18;101296.75;111064;1271;22129;-72
2024/01/11 09:06:23;;;;;;;;;;;;;;;-3.69;77.28;101305.27;111063;1270;22485;-72
2024/01/11 09:09:15;;;;;;;61.40;20.40;;;;;;;-3.64;76.61;101311.55;110845;1265;22272;-72
2024/01/11 09:12:07;;;;;;;56.00;19.90;;;;;;;-3.61;76.82;101308.73;110813;1264;22264;-72
2024/01/11 09:14:58;;;;;;;61.10;22.00;;;;;;;-3.57;76.53;101304.30;110801;1267;23188;-72
2024/01/11 09:17:47;;;;;;;;;;;;;;;-3.52;77.15;101306.50;110964;1271;22312;-73
2024/01/11 09:20:38;;;;;;;58.90;23.00;;;;;;;-3.48;75.81;101311.82;110879;1267;23469;-73
2024/01/11 09:23:29;;;;;;;58.00;19.80;;;;;;;-3.42;75.93;101303.98;110810;1257;23582;-72
2024/01/11 09:26:18;;;;;;;;;;;;;;;-3.37;75.49;101303.32;110814;1264;22538;-72
2024/01/11 09:29:09;;;;;;;49.60;20.10;;;;;;;-3.32;76.09;101307.08;110897;1258;22359;-75
2024/01/11 09:32:00;;;;;;;57.70;20.90;;;;;;;-3.27;76.06;101303.98;111064;1264;22389;-75
2024/01/11 09:35:05;;;;;;;58.70;21.20;;;;;;;-3.23;74.53;101304.44;109161;1271;22712;-76
2024/01/11 09:37:56;;;;;;;51.60;19.90;;;;;;;-3.17;75.13;101297.61;107820;1271;25666;-74
2024/01/11 09:40:48;;;;;;;45.40;18.20;;;;;;;-3.13;75.92;101292.62;107896;1264;22709;-74
2024/01/11 09:43:41;;;;;;;55.50;20.60;;;;;;;-3.09;75.90;101288.34;108304;1271;22628;-76
2024/01/11 09:46:33;;;;;;;56.90;18.30;;;;;;;-3.04;75.46;101284.12;107631;1264;25575;-73
2024/01/11 09:49:24;;;;;;;54.50;19.20;;;;;;;-3.00;75.27;101271.86;107947;1266;22685;-72
2024/01/11 09:52:20;;;;;;;49.50;18.90;;;;;;;-2.97;75.12;101271.77;107827;1265;22630;-72
2024/01/11 09:55:13;;;;;;;58.40;18.60;;;;;;;-2.94;74.85;101274.17;108160;1272;23227;-73
2024/01/11 09:58:06;;;;;;;50.70;17.50;;;;;;;-2.90;74.37;101280.80;110865;1272;22346;-73
2024/01/11 10:00:59;;;;;;;43.50;16.40;;;;;;;-2.86;74.18;101287.11;110713;1273;22252;-73
2024/01/11 10:03:50;;;;;;;57.70;19.40;;;;;;;-2.82;74.06;101270.33;110724;1273;22384;-74
2024/01/11 10:06:41;;;;;;;53.70;18.30;;;;;;;-2.75;74.16;101266.02;110773;1273;22308;-73
2024/01/11 10:09:32;;;;;;;43.10;14.20;;;;;;;-2.70;73.80;101260.07;110784;1272;23096;-74
2024/01/11 10:12:24;;;;;;;52.60;17.80;;;;;;;-2.65;73.29;101249.06;110794;1265;22330;-72
2024/01/11 10:15:16;;;;;;;58.10;20.60;;;;;;;-2.59;73.09;101246.52;110819;1272;23096;-73
2024/01/11 10:18:07;;;;;;;45.60;18.00;;;;;;;-2.54;73.33;101242.23;110715;1272;22181;-74
2024/01/11 10:20:59;;;;;;;49.40;18.80;;;;;;;-2.48;72.33;101235.20;110828;1270;23177;-74
2024/01/11 10:23:51;;;;;;;55.80;18.50;;;;;;;-2.42;72.58;101233.73;110921;1270;22995;-74
2024/01/11 10:26:45;;;;;;;40.50;15.50;;;;;;;-2.36;72.28;101233.13;110879;1271;22420;-74
2024/01/11 10:29:37;;;;;;;49.50;15.80;;;;;;;-2.33;72.35;101225.52;110806;1272;22461;-73
2024/01/11 10:32:34;;;;;;;43.70;17.10;;;;;;;-2.28;71.83;101218.63;110927;1256;22258;-73
2024/01/11 10:35:26;;;;;;;51.60;19.20;;;;;;;-2.24;72.02;101220.17;110880;1271;22374;-73
2024/01/11 10:38:17;;;;;;;49.00;18.20;;;;;;;-2.21;71.79;101224.98;110805;1269;22192;-74
2024/01/11 10:41:10;;;;;;;45.00;15.90;;;;;;;-2.16;71.18;101232.33;110815;1265;22332;-73
2024/01/11 10:44:03;;;;;;;45.10;16.60;;;;;;;-2.11;70.87;101230.36;110887;1270;22347;-73
2024/01/11 10:46:57;;;;;;;43.00;16.80;;;;;;;-2.08;70.11;101236.34;110958;1264;22295;-74
2024/01/11 10:49:51;;;;;;;47.20;16.00;;;;;;;-2.05;70.23;101238.90;110816;1264;22352;-73
2024/01/11 10:52:51;;;;;;;47.10;16.10;;;;;;;-2.02;70.67;101237.14;110867;1270;22918;-74
2024/01/11 10:55:44;;;;;;;42.10;15.20;;;;;;;-2.00;69.10;101234.98;110955;1264;23178;-73
2024/01/11 10:58:36;;;;;;;44.60;16.60;;;;;;;-1.99;68.68;101232.18;110845;1271;23141;-73
2024/01/11 11:01:27;;;;;;;46.70;16.00;;;;;;;-1.97;68.92;101234.71;110978;1265;22556;-73
2024/01/11 11:04:20;;;;;;;40.90;14.90;;;;;;;-1.94;68.81;101229.34;110833;1265;22477;-73
2024/01/11 11:07:12;;;;;;;41.60;14.90;;;;;;;-1.92;69.53;101231.88;110854;1265;22411;-74
2024/01/11 11:10:05;;;;;;;47.90;15.40;;;;;;;-1.90;68.50;101232.77;110827;1272;22319;-73
2024/01/11 11:12:59;;;;;;;43.80;14.30;;;;;;;-1.89;68.77;101226.77;110758;1273;22166;-73
2024/01/11 11:15:50;;;;;;;44.60;15.20;;;;;;;-1.89;69.19;101236.15;110850;1260;22217;-74
2024/01/11 11:18:41;;;;;;;43.10;16.10;;;;;;;-1.88;68.55;101234.59;110797;1272;22126;-73
2024/01/11 11:21:32;;;;;;;46.00;16.60;;;;;;;-1.86;68.91;101232.11;110825;1271;22137;-74
2024/01/11 11:24:22;;;;;;;47.30;16.90;;;;;;;-1.87;68.67;101226.95;110843;1267;22403;-75
2024/01/11 11:27:17;;;;;;;51.60;16.80;;;;;;;-1.87;69.02;101231.86;110840;1267;22222;-73
2024/01/11 11:30:09;;;;;;;50.60;16.60;;;;;;;-1.87;68.54;101230.54;110825;1267;23075;-73
2024/01/11 11:33:08;;;;;;;51.10;16.90;;;;;;;-1.86;68.70;101236.58;110921;1271;22279;-72
2024/01/11 11:36:00;;;;;;;51.50;18.70;;;;;;;-1.87;68.69;101222.80;110880;1265;22153;-73
2024/01/11 11:38:51;;;;;;;51.70;18.10;;;;;;;-1.88;68.38;101229.98;110934;1265;22351;-73
2024/01/11 11:41:42;;;;;;;57.00;18.40;;;;;;;-1.89;68.22;101229.58;110862;1249;23513;-73
2024/01/11 11:44:34;;;;;;;54.70;22.60;;;;;;;-1.90;68.55;101233.25;110836;1260;22234;-73
2024/01/11 11:47:32;;;;;;;48.90;18.90;;;;;;;-1.91;68.97;101217.44;110790;1270;22660;-72
2024/01/11 11:50:25;;;;;;;55.60;20.40;;;;;;;-1.91;68.78;101205.78;110857;1271;22763;-73
2024/01/11 11:53:17;;;;;;;46.00;17.10;;;;;;;-1.91;68.75;101201.64;111057;1265;22188;-73
2024/01/11 11:56:09;;;;;;;51.00;18.40;;;;;;;-1.91;69.02;101204.14;111061;1271;22845;-73
2024/01/11 11:59:01;;;;;;;55.30;18.30;;;;;;;-1.89;69.06;101200.02;111054;1265;22209;-74
2024/01/11 12:01:53;;;;;;;44.70;17.20;;;;;;;-1.88;68.53;101202.30;110970;1269;22264;-74
2024/01/11 12:04:49;;;;;;;51.20;18.00;;;;;;;-1.87;68.96;101196.83;110824;1264;22130;-73
2024/01/11 12:07:40;;;;;;;48.00;17.80;;;;;;;-1.86;68.55;101199.67;110859;1264;22332;-72
2024/01/11 12:10:30;;;;;;;47.10;16.50;;;;;;;-1.86;68.53;101196.45;110963;1271;23015;-73
2024/01/11 12:13:21;;;;;;;54.10;19.20;;;;;;;-1.85;68.48;101187.63;110977;1271;22315;-73
2024/01/11 12:16:13;;;;;;;47.60;17.50;;;;;;;-1.83;68.21;101180.86;110852;1272;23221;-74
2024/01/11 12:19:03;;;;;;;48.20;18.30;;;;;;;-1.82;68.26;101176.64;110872;1272;22240;-73
2024/01/11 12:21:54;;;;;;;59.50;19.30;;;;;;;-1.83;67.95;101182.50;110754;1273;22826;-73
2024/01/11 12:24:45;;;;;;;60.90;19.80;;;;;;;-1.82;68.55;101180.86;110880;1272;22312;-73
2024/01/11 12:27:36;;;;;;;49.80;17.60;;;;;;;-1.83;68.80;101183.61;110749;1266;22266;-74
2024/01/11 12:30:29;;;;;;;49.80;18.00;;;;;;;-1.83;68.50;101187.65;111007;1269;22821;-75
2024/01/11 12:33:30;;;;;;;55.60;19.70;;;;;;;-1.86;68.59;101189.73;110990;1271;22106;-73
2024/01/11 12:36:21;;;;;;;55.40;20.20;;;;;;;-1.88;68.02;101182.66;110895;1270;22160;-73
2024/01/11 12:39:13;;;;;;;57.50;22.50;;;;;;;-1.93;68.11;101196.46;111034;1265;22162;-73
2024/01/11 12:42:04;;;;;;;56.80;20.70;;;;;;;-1.94;68.79;101195.34;111019;1259;22380;-74